MSC Koroni — D5CD9 — position and weather

sailwx.info

Track history (hours):
 
Tides and Currents Weather Stations Pressure Air Temp Water Temp Dewpoint Dewpoint Depression Visibility Wind Speed Wind Dir Waves Ship Positions

MSC Koroni

Last reported at 2018-Feb-22 16:30 UTC. Time now 2018-Feb-22 16:56 UTC.
Position N 28°26' W 015°16'.

Length 257 m; draft 10.8 m.

Type: Ship (hazmat cat A). MMSI: 636015674.

Date/timePositionNaut miles runAvg speedWind from/ knotsBaromVisibWave heightAir tempDewpointWater temp
2018-Feb-22 16:30N 28°26' W 015°16'816.4
2018-Feb-22 16:00N 28°34' W 015°13'816.6
2018-Feb-22 15:31N 28°42' W 015°11'916.8
2018-Feb-22 14:59N 28°50' W 015°08'  
2018-Feb-19 14:22N 48°39' W 005°59'817.5
2018-Feb-19 13:54N 48°47' W 005°54'717.4
2018-Feb-19 13:30N 48°52' W 005°48'918.1
2018-Feb-19 13:00N 48°57' W 005°37'2418.8
2018-Feb-19 11:44N 49°10' W 005°05'819.3
2018-Feb-19 11:19N 49°14' W 004°55'619.2
2018-Feb-19 11:00N 49°17' W 004°47'1018.8
2018-Feb-19 10:29N 49°22' W 004°34'5816.4
2018-Feb-19 06:58N 49°51' W 003°18'815.2
2018-Feb-19 06:25N 49°55' W 003°06'716.2
2018-Feb-19 06:00N 49°57' W 002°56'817.0
2018-Feb-19 05:30N 49°59' W 002°43'918.1
2018-Feb-19 05:00N 50°03' W 002°30'1119.2
2018-Feb-19 04:26N 50°06' W 002°14'920.0
2018-Feb-19 04:00N 50°07' W 002°01'1019.9
2018-Feb-19 03:30N 50°06' W 001°45'1019.6
2018-Feb-19 03:00N 50°02' W 001°31'1019.3
2018-Feb-19 02:30N 49°57' W 001°18'1019.1
2018-Feb-19 02:00N 49°52' W 001°05'918.1
2018-Feb-19 01:30N 49°48' W 000°53'1216.8
2018-Feb-19 00:48N 49°41' W 000°38'516.2
2018-Feb-19 00:30N 49°39' W 000°31'816.2
2018-Feb-19 00:01N 49°35' W 000°20'815.9
2018-Feb-18 23:31N 49°31' W 000°10'612.5
2018-Feb-18 23:00N 49°30' W 000°00'612.0
2018-Feb-18 22:31N 49°28' E 000°08'0 0.5
2018-Feb-18 21:58N 49°28' E 000°08'0 0.0
2018-Feb-18 21:28N 49°28' E 000°08'0 0.0
2018-Feb-18 20:58N 49°28' E 000°08'0 0.0
2018-Feb-18 20:28N 49°28' E 000°08'0 0.0
2018-Feb-18 19:58N 49°28' E 000°08'0 0.0
2018-Feb-18 19:28N 49°28' E 000°08'0 0.0
2018-Feb-18 18:58N 49°28' E 000°08'0 0.0
2018-Feb-18 18:28N 49°28' E 000°08'0 0.0
2018-Feb-18 17:58N 49°28' E 000°08'0 0.0
2018-Feb-18 17:28N 49°28' E 000°08'0 0.0
2018-Feb-18 16:58N 49°28' E 000°08'0 0.0
2018-Feb-18 16:28N 49°28' E 000°08'0 0.0
2018-Feb-18 15:58N 49°28' E 000°08'0 0.0
2018-Feb-18 15:28N 49°28' E 000°08'0 0.0
2018-Feb-18 14:58N 49°28' E 000°08'0 0.0
2018-Feb-18 14:28N 49°28' E 000°08'0 0.0
2018-Feb-18 13:58N 49°28' E 000°08'0 0.0
2018-Feb-18 13:28N 49°28' E 000°08'0 0.0
2018-Feb-18 12:58N 49°28' E 000°08'0 0.0
2018-Feb-18 12:28N 49°28' E 000°08'0 0.6
2018-Feb-18 12:01N 49°28' E 000°08'4 7.5
2018-Feb-18 11:30N 49°30' E 000°03'713.6
2018-Feb-18 11:00N 49°33' W 000°07'510.8
2018-Feb-18 10:30N 49°38' W 000°07'510.6
2018-Feb-18 10:00N 49°43' W 000°08'713.2
2018-Feb-18 09:31N 49°50' W 000°07'815.2
2018-Feb-18 09:00N 49°57' W 000°07'815.8
2018-Feb-18 08:30N 50°05' W 000°07'714.2
2018-Feb-18 08:00N 50°12' W 000°07'611.9
2018-Feb-18 07:30N 50°18' W 000°08'612.0
2018-Feb-18 07:00N 50°24' W 000°05'714.7
2018-Feb-18 06:30N 50°29' E 000°04'816.1
2018-Feb-18 06:00N 50°32' E 000°15'816.4
2018-Feb-18 05:30N 50°35' E 000°27'816.2
2018-Feb-18 05:00N 50°38' E 000°39'816.5
2018-Feb-18 04:30N 50°44' E 000°49'917.8
2018-Feb-18 04:00N 50°49' E 000°60'917.3
2018-Feb-18 03:30N 50°55' E 001°10'816.3
2018-Feb-18 03:00N 51°00' E 001°20'815.3
2018-Feb-18 02:30N 51°05' E 001°29'713.9
2018-Feb-18 02:00N 51°09' E 001°38'612.5
2018-Feb-18 01:30N 51°13' E 001°46'612.9
2018-Feb-18 01:00N 51°19' E 001°50'713.9
2018-Feb-18 00:30N 51°26' E 001°55'713.5
2018-Feb-18 00:00N 51°32' E 001°51'714.6
2018-Feb-17 23:30N 51°39' E 001°46'816.6
2018-Feb-17 23:00N 51°47' E 001°44'713.2
2018-Feb-17 22:30N 51°51' E 001°36'5 9.2
2018-Feb-17 22:00N 51°47' E 001°32'5 9.6
2018-Feb-17 21:30N 51°43' E 001°29'612.4
2018-Feb-17 21:00N 51°38' E 001°23'714.4
2018-Feb-17 20:30N 51°34' E 001°13'714.6
2018-Feb-17 20:00N 51°30' E 001°03'713.8
2018-Feb-17 19:30N 51°29' E 000°52'714.1
2018-Feb-17 19:00N 51°30' E 000°41'612.7
2018-Feb-17 18:31N 51°30' E 000°30'1 1.2
2018-Feb-17 18:01N 51°30' E 000°30'0 0.0
2018-Feb-17 17:30N 51°30' E 000°29'0 0.0
2018-Feb-17 17:01N 51°30' E 000°29'0 0.0
2018-Feb-17 16:30N 51°30' E 000°29'0 0.0
2018-Feb-17 16:01N 51°30' E 000°29'0 0.0
2018-Feb-17 15:31N 51°30' E 000°29'0 0.0
2018-Feb-17 15:00N 51°30' E 000°29'0 0.0
2018-Feb-17 14:30N 51°30' E 000°29'0 0.0
2018-Feb-17 14:01N 51°30' E 000°29'0 0.0
2018-Feb-17 13:31N 51°30' E 000°29'0 0.0
2018-Feb-17 13:01N 51°30' E 000°29'0 0.0
2018-Feb-17 12:31N 51°30' E 000°29'0 0.0
2018-Feb-17 12:01N 51°30' E 000°30'0 0.0
2018-Feb-17 11:31N 51°30' E 000°29'0 0.0
2018-Feb-17 11:00N 51°30' E 000°30'0 0.0
2018-Feb-17 10:30N 51°30' E 000°29'0 0.0
2018-Feb-17 10:01N 51°30' E 000°29'0 0.0
2018-Feb-17 09:31N 51°30' E 000°29'0 0.0
2018-Feb-17 09:01N 51°30' E 000°29'0 0.0
2018-Feb-17 08:30N 51°30' E 000°29'0 0.0
2018-Feb-17 08:01N 51°30' E 000°30'0 0.0
2018-Feb-17 07:30N 51°30' E 000°29'0 0.0
2018-Feb-17 07:01N 51°30' E 000°29'0 0.0
2018-Feb-17 06:30N 51°30' E 000°30'0 0.8
2018-Feb-17 06:01N 51°30' E 000°30'3 6.1
2018-Feb-17 05:29N 51°30' E 000°35'612.6
2018-Feb-17 05:00N 51°29' E 000°45'715.0
2018-Feb-17 04:30N 51°29' E 000°57'816.1
2018-Feb-17 04:00N 51°33' E 001°08'816.0
2018-Feb-17 03:30N 51°37' E 001°19'816.2
2018-Feb-17 03:00N 51°43' E 001°28'815.5
2018-Feb-17 02:30N 51°50' E 001°34'510.9
2018-Feb-17 02:00N 51°52' E 001°42'3 5.5
2018-Feb-17 01:31N 51°55' E 001°43'1 1.8
2018-Feb-17 00:59N 51°56' E 001°43'0 0.3
2018-Feb-17 00:28N 51°55' E 001°42'0 0.1
2018-Feb-17 00:00N 51°55' E 001°43'0 0.0
2018-Feb-16 23:30N 51°55' E 001°43'0 0.0
2018-Feb-16 23:00N 51°55' E 001°43'0 0.0
2018-Feb-16 22:30N 51°55' E 001°43'0 0.0
2018-Feb-16 22:00N 51°55' E 001°43'0 0.0
2018-Feb-16 21:30N 51°55' E 001°43'0 0.0
2018-Feb-16 21:00N 51°55' E 001°43'0 0.0
2018-Feb-16 20:30N 51°55' E 001°43'0 0.0
2018-Feb-16 20:00N 51°55' E 001°42'0 0.2
2018-Feb-16 19:30N 51°55' E 001°42'0 0.3
2018-Feb-16 19:00N 51°56' E 001°42'0 0.2
2018-Feb-16 18:30N 51°56' E 001°43'0 0.2
2018-Feb-16 18:00N 51°56' E 001°43'3 5.0
2018-Feb-16 17:30N 51°53' E 001°44'510.4
2018-Feb-16 17:00N 51°49' E 001°49'4 8.8
2018-Feb-16 16:30N 51°45' E 001°49'5 8.8
2018-Feb-16 16:00N 51°40' E 001°49'4 8.3
2018-Feb-16 15:30N 51°36' E 001°51'4 8.2
2018-Feb-16 15:00N 51°32' E 001°53'4 7.3
2018-Feb-16 14:30N 51°29' E 001°56'4 7.3
2018-Feb-16 14:00N 51°27' E 001°60'3 6.7
2018-Feb-16 13:30N 51°25' E 002°04'3 6.4
2018-Feb-16 13:00N 51°23' E 002°09'3 6.3
2018-Feb-16 12:30N 51°22' E 002°13'3 5.9
2018-Feb-16 12:00N 51°21' E 002°18'3 5.8
2018-Feb-16 11:30N 51°21' E 002°22'3 6.7
2018-Feb-16 11:01N 51°22' E 002°27'4 7.3
2018-Feb-16 10:28N 51°23' E 002°34'3 7.1
2018-Feb-16 10:00N 51°23' E 002°39'4 7.7
2018-Feb-16 09:29N 51°22' E 002°45'816.4
2018-Feb-16 09:01N 51°23' E 002°58'918.6
2018-Feb-16 08:31N 51°24' E 003°12'1019.1
2018-Feb-16 08:01N 51°25' E 003°28'612.4
2018-Feb-16 07:30N 51°26' E 003°37'713.8
2018-Feb-16 07:00N 51°22' E 003°46'714.5
2018-Feb-16 06:31N 51°23' E 003°57'4 7.1
2018-Feb-16 06:00N 51°23' E 004°03'612.9
2018-Feb-16 05:31N 51°23' E 004°13'510.4
2018-Feb-16 05:00N 51°18' E 004°16'1 1.8
2018-Feb-16 04:22N 51°17' E 004°15'0 0.0
2018-Feb-16 03:55N 51°17' E 004°15'0 0.0
2018-Feb-16 03:28N 51°17' E 004°15'0 0.0
2018-Feb-16 02:58N 51°17' E 004°15'0 0.0
2018-Feb-16 02:28N 51°17' E 004°15'0 0.0
2018-Feb-16 01:52N 51°17' E 004°15'0 0.0
2018-Feb-16 01:28N 51°17' E 004°15'0 0.0
2018-Feb-16 00:58N 51°17' E 004°15'0 0.0
2018-Feb-16 00:28N 51°17' E 004°15'0 0.0
2018-Feb-15 23:58N 51°17' E 004°15'0 0.0
2018-Feb-15 23:28N 51°17' E 004°15'0 0.0
2018-Feb-15 22:55N 51°17' E 004°15'0 0.0
2018-Feb-15 22:25N 51°17' E 004°15'0 0.0
2018-Feb-15 21:55N 51°17' E 004°15'0 0.0
2018-Feb-15 21:25N 51°17' E 004°15'0 0.0
2018-Feb-15 20:58N 51°17' E 004°15'0 0.0
2018-Feb-15 20:28N 51°17' E 004°15'0 0.0
2018-Feb-15 19:49N 51°17' E 004°15'0 0.0
2018-Feb-15 19:28N 51°17' E 004°15'0 0.0
2018-Feb-15 18:58N 51°17' E 004°15'0 0.1
2018-Feb-15 18:28N 51°17' E 004°15'1 1.1
2018-Feb-15 17:53N 51°18' E 004°16'0 0.0
2018-Feb-15 17:29N 51°18' E 004°16'0 0.0
2018-Feb-15 16:59N 51°18' E 004°16'0 0.0
2018-Feb-15 16:27N 51°18' E 004°16'0 0.0
2018-Feb-15 15:57N 51°18' E 004°16'0 0.0
2018-Feb-15 15:30N 51°18' E 004°16'0 0.0
2018-Feb-15 14:57N 51°18' E 004°16'0 0.0
2018-Feb-15 14:30N 51°18' E 004°16'0 0.0
2018-Feb-15 13:55N 51°18' E 004°16'0 0.0
2018-Feb-15 13:28N 51°18' E 004°16'0 0.0
2018-Feb-15 12:58N 51°18' E 004°16'0 0.0
2018-Feb-15 12:13N 51°18' E 004°16'0 0.0
2018-Feb-15 11:55N 51°18' E 004°16'0 0.0
2018-Feb-15 11:28N 51°18' E 004°16'0 0.0
2018-Feb-15 10:58N 51°18' E 004°16'0 0.0
2018-Feb-15 10:28N 51°18' E 004°16'0 0.0
2018-Feb-15 09:55N 51°18' E 004°16'0 0.0
2018-Feb-15 09:22N 51°18' E 004°16'0 0.0
2018-Feb-15 08:58N 51°18' E 004°16'0 0.0
2018-Feb-15 08:25N 51°18' E 004°16'0 0.0
2018-Feb-15 07:49N 51°18' E 004°16'0 0.0
2018-Feb-15 07:28N 51°18' E 004°16'0 0.0
2018-Feb-15 06:58N 51°18' E 004°16'0 0.0
2018-Feb-15 06:16N 51°18' E 004°16'0 0.0
2018-Feb-15 05:58N 51°18' E 004°16'0 0.0
2018-Feb-15 05:22N 51°18' E 004°16'0 0.0
2018-Feb-15 04:55N 51°18' E 004°16'0 0.0
2018-Feb-15 04:28N 51°18' E 004°16'0 0.0
2018-Feb-15 03:49N 51°18' E 004°16'0 0.0
2018-Feb-15 03:28N 51°18' E 004°16'0 0.0
2018-Feb-15 02:58N 51°18' E 004°16'0 0.0
2018-Feb-15 02:28N 51°18' E 004°16'0 0.0
2018-Feb-15 01:49N 51°18' E 004°16'0 0.0
2018-Feb-15 01:29N 51°18' E 004°16'0 0.0
2018-Feb-15 00:59N 51°18' E 004°16'0 0.0
2018-Feb-15 00:26N 51°18' E 004°16'0 0.0
2018-Feb-14 23:56N 51°18' E 004°16'0 0.0
2018-Feb-14 23:26N 51°18' E 004°16'0 0.0
2018-Feb-14 23:00N 51°18' E 004°16'0 0.0
2018-Feb-14 22:28N 51°18' E 004°16'0 0.0
2018-Feb-14 21:58N 51°18' E 004°16'0 0.0
2018-Feb-14 21:25N 51°18' E 004°16'0 0.0
2018-Feb-14 20:58N 51°18' E 004°16'0 0.0
2018-Feb-14 20:28N 51°18' E 004°16'0 0.0
2018-Feb-14 19:59N 51°18' E 004°16'0 0.0
2018-Feb-14 19:22N 51°18' E 004°16'0 0.0
2018-Feb-14 18:55N 51°18' E 004°16'0 0.0
2018-Feb-14 18:22N 51°18' E 004°16'0 0.1
2018-Feb-14 17:58N 51°18' E 004°16'0 0.0
2018-Feb-14 17:25N 51°18' E 004°16'0 0.0
2018-Feb-14 16:55N 51°18' E 004°16'0 0.0
2018-Feb-14 16:28N 51°18' E 004°16'0 0.0
2018-Feb-14 15:55N 51°18' E 004°16'0 0.0
2018-Feb-14 15:21N 51°18' E 004°16'0 0.0
2018-Feb-14 14:51N 51°18' E 004°16'0 0.0
2018-Feb-14 14:30N 51°18' E 004°16'0 0.0
2018-Feb-14 13:57N 51°18' E 004°16'0 0.0
2018-Feb-14 13:27N 51°18' E 004°16'0 0.0
2018-Feb-14 12:57N 51°18' E 004°16'0 0.0
2018-Feb-14 12:30N 51°18' E 004°16'0 0.0
2018-Feb-14 11:51N 51°18' E 004°16'0 0.0
2018-Feb-14 11:29N 51°18' E 004°16'0 0.0
2018-Feb-14 10:56N 51°18' E 004°16'0 0.0
2018-Feb-14 10:29N 51°18' E 004°16'0 0.0
2018-Feb-14 09:56N 51°18' E 004°16'0 0.0
2018-Feb-14 09:29N 51°18' E 004°16'0 0.0
2018-Feb-14 08:59N 51°18' E 004°16'0 0.0
2018-Feb-14 08:29N 51°18' E 004°16'0 0.0
2018-Feb-14 07:53N 51°18' E 004°16'0 0.0
2018-Feb-14 07:23N 51°18' E 004°16'0 0.0
2018-Feb-14 06:53N 51°18' E 004°16'0 0.0
2018-Feb-14 06:23N 51°18' E 004°16'0 0.0
2018-Feb-14 05:59N 51°18' E 004°16'0 0.0
2018-Feb-14 05:29N 51°18' E 004°16'0 0.0
2018-Feb-14 05:00N 51°18' E 004°16'1 1.3
2018-Feb-14 04:31N 51°18' E 004°16'3 6.3
2018-Feb-14 04:01N 51°21' E 004°15'4 7.6
2018-Feb-14 03:30N 51°22' E 004°09'510.4
2018-Feb-14 03:00N 51°25' E 004°02'510.5
2018-Feb-14 02:30N 51°22' E 003°55'612.4
2018-Feb-14 02:00N 51°22' E 003°45'612.3
2018-Feb-14 01:30N 51°26' E 003°38'611.4
2018-Feb-14 01:00N 51°25' E 003°29'817.0
2018-Feb-14 00:31N 51°25' E 003°16'917.0
2018-Feb-14 00:00N 51°24' E 003°02'917.3
2018-Feb-13 23:30N 51°22' E 002°48'510.7
2018-Feb-13 23:00N 51°22' E 002°40'2 3.8
2018-Feb-13 22:29N 51°22' E 002°37'2 4.5
2018-Feb-13 21:59N 51°22' E 002°33'3 6.2
2018-Feb-13 21:28N 51°21' E 002°28'4 7.9
2018-Feb-13 21:00N 51°20' E 002°23'815.6
2018-Feb-13 20:30N 51°16' E 002°12'918.0
2018-Feb-13 20:00N 51°11' E 001°60'917.7
2018-Feb-13 19:30N 51°07' E 001°48'817.0
2018-Feb-13 19:01N 51°01' E 001°37'917.8
2018-Feb-13 18:30N 50°54' E 001°28'917.8
2018-Feb-13 18:00N 50°46' E 001°23'917.7
2018-Feb-13 17:30N 50°39' E 001°15'4017.3
2018-Feb-13 15:10N 50°21' E 000°18'317.2
2018-Feb-13 15:00N 50°20' E 000°14'917.4
2018-Feb-13 14:31N 50°18' E 000°01'917.4
2018-Feb-13 13:59N 50°16' W 000°13'817.0
2018-Feb-13 13:30N 50°15' W 000°26'1816.5
2018-Feb-13 12:23N 50°10' W 000°54'616.3
2018-Feb-13 12:00N 50°09' W 001°03'816.3
2018-Feb-13 11:30N 50°07' W 001°15'816.5
2018-Feb-13 11:00N 50°04' W 001°28'816.9
2018-Feb-13 10:30N 50°02' W 001°40'917.5
2018-Feb-13 10:00N 49°59' W 001°53'917.9
2018-Feb-13 09:30N 49°56' W 002°06'918.3
2018-Feb-13 09:00N 49°54' W 002°20'918.3
2018-Feb-13 08:30N 49°52' W 002°34'918.5
2018-Feb-13 08:00N 49°49' W 002°48'918.2
2018-Feb-13 07:30N 49°47' W 003°02'918.3
2018-Feb-13 07:00N 49°45' W 003°15'1018.5
2018-Feb-13 06:27N 49°43' W 003°31'1118.5
2018-Feb-13 05:50N 49°40' W 003°48'  
Track history (hours):
 
Tides and Currents Weather Stations Pressure Air Temp Water Temp Dewpoint Dewpoint Depression Visibility Wind Speed Wind Dir Waves Ship Positions

MSC Koroni

Last reported at 2018-Feb-22 16:30 UTC. Time now 2018-Feb-22 16:56 UTC.
Position N 28°26' W 015°16'.

Length 257 m; draft 10.8 m.

Type: Ship (hazmat cat A). MMSI: 636015674.

Date/timePositionNaut miles runAvg speedWind from/ knotsBaromVisibWave heightAir tempDewpointWater temp
2018-Feb-22 16:30N 28°26' W 015°16'816.4
2018-Feb-22 16:00N 28°34' W 015°13'816.6
2018-Feb-22 15:31N 28°42' W 015°11'916.8
2018-Feb-22 14:59N 28°50' W 015°08'  
2018-Feb-19 14:22N 48°39' W 005°59'817.5
2018-Feb-19 13:54N 48°47' W 005°54'717.4
2018-Feb-19 13:30N 48°52' W 005°48'918.1
2018-Feb-19 13:00N 48°57' W 005°37'2418.8
2018-Feb-19 11:44N 49°10' W 005°05'819.3
2018-Feb-19 11:19N 49°14' W 004°55'619.2
2018-Feb-19 11:00N 49°17' W 004°47'1018.8
2018-Feb-19 10:29N 49°22' W 004°34'5816.4
2018-Feb-19 06:58N 49°51' W 003°18'815.2
2018-Feb-19 06:25N 49°55' W 003°06'716.2
2018-Feb-19 06:00N 49°57' W 002°56'817.0
2018-Feb-19 05:30N 49°59' W 002°43'918.1
2018-Feb-19 05:00N 50°03' W 002°30'1119.2
2018-Feb-19 04:26N 50°06' W 002°14'920.0
2018-Feb-19 04:00N 50°07' W 002°01'1019.9
2018-Feb-19 03:30N 50°06' W 001°45'1019.6
2018-Feb-19 03:00N 50°02' W 001°31'1019.3
2018-Feb-19 02:30N 49°57' W 001°18'1019.1
2018-Feb-19 02:00N 49°52' W 001°05'918.1
2018-Feb-19 01:30N 49°48' W 000°53'1216.8
2018-Feb-19 00:48N 49°41' W 000°38'516.2
2018-Feb-19 00:30N 49°39' W 000°31'816.2
2018-Feb-19 00:01N 49°35' W 000°20'815.9
2018-Feb-18 23:31N 49°31' W 000°10'612.5
2018-Feb-18 23:00N 49°30' W 000°00'612.0
2018-Feb-18 22:31N 49°28' E 000°08'0 0.5
2018-Feb-18 21:58N 49°28' E 000°08'0 0.0
2018-Feb-18 21:28N 49°28' E 000°08'0 0.0
2018-Feb-18 20:58N 49°28' E 000°08'0 0.0
2018-Feb-18 20:28N 49°28' E 000°08'0 0.0
2018-Feb-18 19:58N 49°28' E 000°08'0 0.0
2018-Feb-18 19:28N 49°28' E 000°08'0 0.0
2018-Feb-18 18:58N 49°28' E 000°08'0 0.0
2018-Feb-18 18:28N 49°28' E 000°08'0 0.0
2018-Feb-18 17:58N 49°28' E 000°08'0 0.0
2018-Feb-18 17:28N 49°28' E 000°08'0 0.0
2018-Feb-18 16:58N 49°28' E 000°08'0 0.0
2018-Feb-18 16:28N 49°28' E 000°08'0 0.0
2018-Feb-18 15:58N 49°28' E 000°08'0 0.0
2018-Feb-18 15:28N 49°28' E 000°08'0 0.0
2018-Feb-18 14:58N 49°28' E 000°08'0 0.0
2018-Feb-18 14:28N 49°28' E 000°08'0 0.0
2018-Feb-18 13:58N 49°28' E 000°08'0 0.0
2018-Feb-18 13:28N 49°28' E 000°08'0 0.0
2018-Feb-18 12:58N 49°28' E 000°08'0 0.0
2018-Feb-18 12:28N 49°28' E 000°08'0 0.6
2018-Feb-18 12:01N 49°28' E 000°08'4 7.5
2018-Feb-18 11:30N 49°30' E 000°03'713.6
2018-Feb-18 11:00N 49°33' W 000°07'510.8
2018-Feb-18 10:30N 49°38' W 000°07'510.6
2018-Feb-18 10:00N 49°43' W 000°08'713.2
2018-Feb-18 09:31N 49°50' W 000°07'815.2
2018-Feb-18 09:00N 49°57' W 000°07'815.8
2018-Feb-18 08:30N 50°05' W 000°07'714.2
2018-Feb-18 08:00N 50°12' W 000°07'611.9
2018-Feb-18 07:30N 50°18' W 000°08'612.0
2018-Feb-18 07:00N 50°24' W 000°05'714.7
2018-Feb-18 06:30N 50°29' E 000°04'816.1
2018-Feb-18 06:00N 50°32' E 000°15'816.4
2018-Feb-18 05:30N 50°35' E 000°27'816.2
2018-Feb-18 05:00N 50°38' E 000°39'816.5
2018-Feb-18 04:30N 50°44' E 000°49'917.8
2018-Feb-18 04:00N 50°49' E 000°60'917.3
2018-Feb-18 03:30N 50°55' E 001°10'816.3
2018-Feb-18 03:00N 51°00' E 001°20'815.3
2018-Feb-18 02:30N 51°05' E 001°29'713.9
2018-Feb-18 02:00N 51°09' E 001°38'612.5
2018-Feb-18 01:30N 51°13' E 001°46'612.9
2018-Feb-18 01:00N 51°19' E 001°50'713.9
2018-Feb-18 00:30N 51°26' E 001°55'713.5
2018-Feb-18 00:00N 51°32' E 001°51'714.6
2018-Feb-17 23:30N 51°39' E 001°46'816.6
2018-Feb-17 23:00N 51°47' E 001°44'713.2
2018-Feb-17 22:30N 51°51' E 001°36'5 9.2
2018-Feb-17 22:00N 51°47' E 001°32'5 9.6
2018-Feb-17 21:30N 51°43' E 001°29'612.4
2018-Feb-17 21:00N 51°38' E 001°23'714.4
2018-Feb-17 20:30N 51°34' E 001°13'714.6
2018-Feb-17 20:00N 51°30' E 001°03'713.8
2018-Feb-17 19:30N 51°29' E 000°52'714.1
2018-Feb-17 19:00N 51°30' E 000°41'612.7
2018-Feb-17 18:31N 51°30' E 000°30'1 1.2
2018-Feb-17 18:01N 51°30' E 000°30'0 0.0
2018-Feb-17 17:30N 51°30' E 000°29'0 0.0
2018-Feb-17 17:01N 51°30' E 000°29'0 0.0
2018-Feb-17 16:30N 51°30' E 000°29'0 0.0
2018-Feb-17 16:01N 51°30' E 000°29'0 0.0
2018-Feb-17 15:31N 51°30' E 000°29'0 0.0
2018-Feb-17 15:00N 51°30' E 000°29'0 0.0
2018-Feb-17 14:30N 51°30' E 000°29'0 0.0
2018-Feb-17 14:01N 51°30' E 000°29'0 0.0
2018-Feb-17 13:31N 51°30' E 000°29'0 0.0
2018-Feb-17 13:01N 51°30' E 000°29'0 0.0
2018-Feb-17 12:31N 51°30' E 000°29'0 0.0
2018-Feb-17 12:01N 51°30' E 000°30'0 0.0
2018-Feb-17 11:31N 51°30' E 000°29'0 0.0
2018-Feb-17 11:00N 51°30' E 000°30'0 0.0
2018-Feb-17 10:30N 51°30' E 000°29'0 0.0
2018-Feb-17 10:01N 51°30' E 000°29'0 0.0
2018-Feb-17 09:31N 51°30' E 000°29'0 0.0
2018-Feb-17 09:01N 51°30' E 000°29'0 0.0
2018-Feb-17 08:30N 51°30' E 000°29'0 0.0
2018-Feb-17 08:01N 51°30' E 000°30'0 0.0
2018-Feb-17 07:30N 51°30' E 000°29'0 0.0
2018-Feb-17 07:01N 51°30' E 000°29'0 0.0
2018-Feb-17 06:30N 51°30' E 000°30'0 0.8
2018-Feb-17 06:01N 51°30' E 000°30'3 6.1
2018-Feb-17 05:29N 51°30' E 000°35'612.6
2018-Feb-17 05:00N 51°29' E 000°45'715.0
2018-Feb-17 04:30N 51°29' E 000°57'816.1
2018-Feb-17 04:00N 51°33' E 001°08'816.0
2018-Feb-17 03:30N 51°37' E 001°19'816.2
2018-Feb-17 03:00N 51°43' E 001°28'815.5
2018-Feb-17 02:30N 51°50' E 001°34'510.9
2018-Feb-17 02:00N 51°52' E 001°42'3 5.5
2018-Feb-17 01:31N 51°55' E 001°43'1 1.8
2018-Feb-17 00:59N 51°56' E 001°43'0 0.3
2018-Feb-17 00:28N 51°55' E 001°42'0 0.1
2018-Feb-17 00:00N 51°55' E 001°43'0 0.0
2018-Feb-16 23:30N 51°55' E 001°43'0 0.0
2018-Feb-16 23:00N 51°55' E 001°43'0 0.0
2018-Feb-16 22:30N 51°55' E 001°43'0 0.0
2018-Feb-16 22:00N 51°55' E 001°43'0 0.0
2018-Feb-16 21:30N 51°55' E 001°43'0 0.0
2018-Feb-16 21:00N 51°55' E 001°43'0 0.0
2018-Feb-16 20:30N 51°55' E 001°43'0 0.0
2018-Feb-16 20:00N 51°55' E 001°42'0 0.2
2018-Feb-16 19:30N 51°55' E 001°42'0 0.3
2018-Feb-16 19:00N 51°56' E 001°42'0 0.2
2018-Feb-16 18:30N 51°56' E 001°43'0 0.2
2018-Feb-16 18:00N 51°56' E 001°43'3 5.0
2018-Feb-16 17:30N 51°53' E 001°44'510.4
2018-Feb-16 17:00N 51°49' E 001°49'4 8.8
2018-Feb-16 16:30N 51°45' E 001°49'5 8.8
2018-Feb-16 16:00N 51°40' E 001°49'4 8.3
2018-Feb-16 15:30N 51°36' E 001°51'4 8.2
2018-Feb-16 15:00N 51°32' E 001°53'4 7.3
2018-Feb-16 14:30N 51°29' E 001°56'4 7.3
2018-Feb-16 14:00N 51°27' E 001°60'3 6.7
2018-Feb-16 13:30N 51°25' E 002°04'3 6.4
2018-Feb-16 13:00N 51°23' E 002°09'3 6.3
2018-Feb-16 12:30N 51°22' E 002°13'3 5.9
2018-Feb-16 12:00N 51°21' E 002°18'3 5.8
2018-Feb-16 11:30N 51°21' E 002°22'3 6.7
2018-Feb-16 11:01N 51°22' E 002°27'4 7.3
2018-Feb-16 10:28N 51°23' E 002°34'3 7.1
2018-Feb-16 10:00N 51°23' E 002°39'4 7.7
2018-Feb-16 09:29N 51°22' E 002°45'816.4
2018-Feb-16 09:01N 51°23' E 002°58'918.6
2018-Feb-16 08:31N 51°24' E 003°12'1019.1
2018-Feb-16 08:01N 51°25' E 003°28'612.4
2018-Feb-16 07:30N 51°26' E 003°37'713.8
2018-Feb-16 07:00N 51°22' E 003°46'714.5
2018-Feb-16 06:31N 51°23' E 003°57'4 7.1
2018-Feb-16 06:00N 51°23' E 004°03'612.9
2018-Feb-16 05:31N 51°23' E 004°13'510.4
2018-Feb-16 05:00N 51°18' E 004°16'1 1.8
2018-Feb-16 04:22N 51°17' E 004°15'0 0.0
2018-Feb-16 03:55N 51°17' E 004°15'0 0.0
2018-Feb-16 03:28N 51°17' E 004°15'0 0.0
2018-Feb-16 02:58N 51°17' E 004°15'0 0.0
2018-Feb-16 02:28N 51°17' E 004°15'0 0.0
2018-Feb-16 01:52N 51°17' E 004°15'0 0.0
2018-Feb-16 01:28N 51°17' E 004°15'0 0.0
2018-Feb-16 00:58N 51°17' E 004°15'0 0.0
2018-Feb-16 00:28N 51°17' E 004°15'0 0.0
2018-Feb-15 23:58N 51°17' E 004°15'0 0.0
2018-Feb-15 23:28N 51°17' E 004°15'0 0.0
2018-Feb-15 22:55N 51°17' E 004°15'0 0.0
2018-Feb-15 22:25N 51°17' E 004°15'0 0.0
2018-Feb-15 21:55N 51°17' E 004°15'0 0.0
2018-Feb-15 21:25N 51°17' E 004°15'0 0.0
2018-Feb-15 20:58N 51°17' E 004°15'0 0.0
2018-Feb-15 20:28N 51°17' E 004°15'0 0.0
2018-Feb-15 19:49N 51°17' E 004°15'0 0.0
2018-Feb-15 19:28N 51°17' E 004°15'0 0.0
2018-Feb-15 18:58N 51°17' E 004°15'0 0.1
2018-Feb-15 18:28N 51°17' E 004°15'1 1.1
2018-Feb-15 17:53N 51°18' E 004°16'0 0.0
2018-Feb-15 17:29N 51°18' E 004°16'0 0.0
2018-Feb-15 16:59N 51°18' E 004°16'0 0.0
2018-Feb-15 16:27N 51°18' E 004°16'0 0.0
2018-Feb-15 15:57N 51°18' E 004°16'0 0.0
2018-Feb-15 15:30N 51°18' E 004°16'0 0.0
2018-Feb-15 14:57N 51°18' E 004°16'0 0.0
2018-Feb-15 14:30N 51°18' E 004°16'0 0.0
2018-Feb-15 13:55N 51°18' E 004°16'0 0.0
2018-Feb-15 13:28N 51°18' E 004°16'0 0.0
2018-Feb-15 12:58N 51°18' E 004°16'0 0.0
2018-Feb-15 12:13N 51°18' E 004°16'0 0.0
2018-Feb-15 11:55N 51°18' E 004°16'0 0.0
2018-Feb-15 11:28N 51°18' E 004°16'0 0.0
2018-Feb-15 10:58N 51°18' E 004°16'0 0.0
2018-Feb-15 10:28N 51°18' E 004°16'0 0.0
2018-Feb-15 09:55N 51°18' E 004°16'0 0.0
2018-Feb-15 09:22N 51°18' E 004°16'0 0.0
2018-Feb-15 08:58N 51°18' E 004°16'0 0.0
2018-Feb-15 08:25N 51°18' E 004°16'0 0.0
2018-Feb-15 07:49N 51°18' E 004°16'0 0.0
2018-Feb-15 07:28N 51°18' E 004°16'0 0.0
2018-Feb-15 06:58N 51°18' E 004°16'0 0.0
2018-Feb-15 06:16N 51°18' E 004°16'0 0.0
2018-Feb-15 05:58N 51°18' E 004°16'0 0.0
2018-Feb-15 05:22N 51°18' E 004°16'0 0.0
2018-Feb-15 04:55N 51°18' E 004°16'0 0.0
2018-Feb-15 04:28N 51°18' E 004°16'0 0.0
2018-Feb-15 03:49N 51°18' E 004°16'0 0.0
2018-Feb-15 03:28N 51°18' E 004°16'0 0.0
2018-Feb-15 02:58N 51°18' E 004°16'0 0.0
2018-Feb-15 02:28N 51°18' E 004°16'0 0.0
2018-Feb-15 01:49N 51°18' E 004°16'0 0.0
2018-Feb-15 01:29N 51°18' E 004°16'0 0.0
2018-Feb-15 00:59N 51°18' E 004°16'0 0.0
2018-Feb-15 00:26N 51°18' E 004°16'0 0.0
2018-Feb-14 23:56N 51°18' E 004°16'0 0.0
2018-Feb-14 23:26N 51°18' E 004°16'0 0.0
2018-Feb-14 23:00N 51°18' E 004°16'0 0.0
2018-Feb-14 22:28N 51°18' E 004°16'0 0.0
2018-Feb-14 21:58N 51°18' E 004°16'0 0.0
2018-Feb-14 21:25N 51°18' E 004°16'0 0.0
2018-Feb-14 20:58N 51°18' E 004°16'0 0.0
2018-Feb-14 20:28N 51°18' E 004°16'0 0.0
2018-Feb-14 19:59N 51°18' E 004°16'0 0.0
2018-Feb-14 19:22N 51°18' E 004°16'0 0.0
2018-Feb-14 18:55N 51°18' E 004°16'0 0.0
2018-Feb-14 18:22N 51°18' E 004°16'0 0.1
2018-Feb-14 17:58N 51°18' E 004°16'0 0.0
2018-Feb-14 17:25N 51°18' E 004°16'0 0.0
2018-Feb-14 16:55N 51°18' E 004°16'0 0.0
2018-Feb-14 16:28N 51°18' E 004°16'0 0.0
2018-Feb-14 15:55N 51°18' E 004°16'0 0.0
2018-Feb-14 15:21N 51°18' E 004°16'0 0.0
2018-Feb-14 14:51N 51°18' E 004°16'0 0.0
2018-Feb-14 14:30N 51°18' E 004°16'0 0.0
2018-Feb-14 13:57N 51°18' E 004°16'0 0.0
2018-Feb-14 13:27N 51°18' E 004°16'0 0.0
2018-Feb-14 12:57N 51°18' E 004°16'0 0.0
2018-Feb-14 12:30N 51°18' E 004°16'0 0.0
2018-Feb-14 11:51N 51°18' E 004°16'0 0.0
2018-Feb-14 11:29N 51°18' E 004°16'0 0.0
2018-Feb-14 10:56N 51°18' E 004°16'0 0.0
2018-Feb-14 10:29N 51°18' E 004°16'0 0.0
2018-Feb-14 09:56N 51°18' E 004°16'0 0.0
2018-Feb-14 09:29N 51°18' E 004°16'0 0.0
2018-Feb-14 08:59N 51°18' E 004°16'0 0.0
2018-Feb-14 08:29N 51°18' E 004°16'0 0.0
2018-Feb-14 07:53N 51°18' E 004°16'0 0.0
2018-Feb-14 07:23N 51°18' E 004°16'0 0.0
2018-Feb-14 06:53N 51°18' E 004°16'0 0.0
2018-Feb-14 06:23N 51°18' E 004°16'0 0.0
2018-Feb-14 05:59N 51°18' E 004°16'0 0.0
2018-Feb-14 05:29N 51°18' E 004°16'0 0.0
2018-Feb-14 05:00N 51°18' E 004°16'1 1.3
2018-Feb-14 04:31N 51°18' E 004°16'3 6.3
2018-Feb-14 04:01N 51°21' E 004°15'4 7.6
2018-Feb-14 03:30N 51°22' E 004°09'510.4
2018-Feb-14 03:00N 51°25' E 004°02'510.5
2018-Feb-14 02:30N 51°22' E 003°55'612.4
2018-Feb-14 02:00N 51°22' E 003°45'612.3
2018-Feb-14 01:30N 51°26' E 003°38'611.4
2018-Feb-14 01:00N 51°25' E 003°29'817.0
2018-Feb-14 00:31N 51°25' E 003°16'917.0
2018-Feb-14 00:00N 51°24' E 003°02'917.3
2018-Feb-13 23:30N 51°22' E 002°48'510.7
2018-Feb-13 23:00N 51°22' E 002°40'2 3.8
2018-Feb-13 22:29N 51°22' E 002°37'2 4.5
2018-Feb-13 21:59N 51°22' E 002°33'3 6.2
2018-Feb-13 21:28N 51°21' E 002°28'4 7.9
2018-Feb-13 21:00N 51°20' E 002°23'815.6
2018-Feb-13 20:30N 51°16' E 002°12'918.0
2018-Feb-13 20:00N 51°11' E 001°60'917.7
2018-Feb-13 19:30N 51°07' E 001°48'817.0
2018-Feb-13 19:01N 51°01' E 001°37'917.8
2018-Feb-13 18:30N 50°54' E 001°28'917.8
2018-Feb-13 18:00N 50°46' E 001°23'917.7
2018-Feb-13 17:30N 50°39' E 001°15'4017.3
2018-Feb-13 15:10N 50°21' E 000°18'317.2
2018-Feb-13 15:00N 50°20' E 000°14'917.4
2018-Feb-13 14:31N 50°18' E 000°01'917.4
2018-Feb-13 13:59N 50°16' W 000°13'817.0
2018-Feb-13 13:30N 50°15' W 000°26'1816.5
2018-Feb-13 12:23N 50°10' W 000°54'616.3
2018-Feb-13 12:00N 50°09' W 001°03'816.3
2018-Feb-13 11:30N 50°07' W 001°15'816.5
2018-Feb-13 11:00N 50°04' W 001°28'816.9
2018-Feb-13 10:30N 50°02' W 001°40'917.5
2018-Feb-13 10:00N 49°59' W 001°53'917.9
2018-Feb-13 09:30N 49°56' W 002°06'918.3
2018-Feb-13 09:00N 49°54' W 002°20'918.3
2018-Feb-13 08:30N 49°52' W 002°34'918.5
2018-Feb-13 08:00N 49°49' W 002°48'918.2
2018-Feb-13 07:30N 49°47' W 003°02'918.3
2018-Feb-13 07:00N 49°45' W 003°15'1018.5
2018-Feb-13 06:27N 49°43' W 003°31'1118.5
2018-Feb-13 05:50N 49°40' W 003°48'  

Dump ship's entire track history